sensor_id;sensor_type;location;lat;lon;timestamp;P1;durP1;ratioP1;P2;durP2;ratioP2
29662;SDS011;16578;53.266;7.920;2023-11-18T00:00:30;11.00;;;7.03;;
29662;SDS011;16578;53.266;7.920;2023-11-18T00:02:56;9.80;;;6.82;;
29662;SDS011;16578;53.266;7.920;2023-11-18T00:05:22;12.23;;;7.60;;
29662;SDS011;16578;53.266;7.920;2023-11-18T00:07:48;9.13;;;6.25;;
29662;SDS011;16578;53.266;7.920;2023-11-18T00:10:15;9.10;;;6.53;;
29662;SDS011;16578;53.266;7.920;2023-11-18T00:12:40;8.13;;;6.57;;
29662;SDS011;16578;53.266;7.920;2023-11-18T00:15:07;8.07;;;6.25;;
29662;SDS011;16578;53.266;7.920;2023-11-18T00:17:35;10.32;;;6.65;;
29662;SDS011;16578;53.266;7.920;2023-11-18T00:20:01;11.05;;;6.55;;
29662;SDS011;16578;53.266;7.920;2023-11-18T00:22:33;9.80;;;6.32;;
29662;SDS011;16578;53.266;7.920;2023-11-18T00:24:59;12.63;;;6.85;;
29662;SDS011;16578;53.266;7.920;2023-11-18T00:27:24;13.27;;;6.80;;
29662;SDS011;16578;53.266;7.920;2023-11-18T00:29:50;8.63;;;6.43;;
29662;SDS011;16578;53.266;7.920;2023-11-18T00:32:17;9.10;;;6.50;;
29662;SDS011;16578;53.266;7.920;2023-11-18T00:34:43;11.30;;;7.28;;
29662;SDS011;16578;53.266;7.920;2023-11-18T00:37:09;8.13;;;6.45;;
29662;SDS011;16578;53.266;7.920;2023-11-18T00:39:35;8.93;;;6.80;;
29662;SDS011;16578;53.266;7.920;2023-11-18T00:42:02;9.02;;;6.30;;
29662;SDS011;16578;53.266;7.920;2023-11-18T00:44:27;10.25;;;6.40;;
29662;SDS011;16578;53.266;7.920;2023-11-18T00:46:53;8.13;;;6.40;;
29662;SDS011;16578;53.266;7.920;2023-11-18T00:49:19;9.50;;;6.10;;
29662;SDS011;16578;53.266;7.920;2023-11-18T00:51:44;9.73;;;6.65;;
29662;SDS011;16578;53.266;7.920;2023-11-18T00:54:10;8.43;;;6.25;;
29662;SDS011;16578;53.266;7.920;2023-11-18T00:56:37;9.98;;;6.90;;
29662;SDS011;16578;53.266;7.920;2023-11-18T00:59:02;8.13;;;6.45;;
29662;SDS011;16578;53.266;7.920;2023-11-18T01:01:28;9.93;;;6.43;;
29662;SDS011;16578;53.266;7.920;2023-11-18T01:03:54;10.10;;;7.32;;
29662;SDS011;16578;53.266;7.920;2023-11-18T01:06:19;10.82;;;7.05;;
29662;SDS011;16578;53.266;7.920;2023-11-18T01:08:48;10.27;;;6.72;;
29662;SDS011;16578;53.266;7.920;2023-11-18T01:13:48;8.02;;;6.38;;
29662;SDS011;16578;53.266;7.920;2023-11-18T01:16:15;7.35;;;5.93;;
29662;SDS011;16578;53.266;7.920;2023-11-18T01:18:41;9.13;;;6.65;;
29662;SDS011;16578;53.266;7.920;2023-11-18T01:21:07;11.38;;;6.93;;
29662;SDS011;16578;53.266;7.920;2023-11-18T01:26:02;8.55;;;6.13;;
29662;SDS011;16578;53.266;7.920;2023-11-18T01:28:30;8.03;;;6.20;;
29662;SDS011;16578;53.266;7.920;2023-11-18T01:30:58;9.23;;;7.22;;
29662;SDS011;16578;53.266;7.920;2023-11-18T01:33:24;10.93;;;7.03;;
29662;SDS011;16578;53.266;7.920;2023-11-18T01:35:50;11.52;;;7.40;;
29662;SDS011;16578;53.266;7.920;2023-11-18T01:38:15;9.15;;;7.28;;
29662;SDS011;16578;53.266;7.920;2023-11-18T01:40:41;9.98;;;7.03;;
29662;SDS011;16578;53.266;7.920;2023-11-18T01:43:08;10.65;;;7.40;;
29662;SDS011;16578;53.266;7.920;2023-11-18T01:45:37;10.75;;;6.95;;
29662;SDS011;16578;53.266;7.920;2023-11-18T01:48:02;10.10;;;7.60;;
29662;SDS011;16578;53.266;7.920;2023-11-18T01:50:29;8.50;;;6.60;;
29662;SDS011;16578;53.266;7.920;2023-11-18T01:52:54;10.90;;;7.50;;
29662;SDS011;16578;53.266;7.920;2023-11-18T01:55:20;9.10;;;6.88;;
29662;SDS011;16578;53.266;7.920;2023-11-18T01:57:46;10.00;;;7.22;;
29662;SDS011;16578;53.266;7.920;2023-11-18T02:00:12;8.77;;;6.85;;
29662;SDS011;16578;53.266;7.920;2023-11-18T02:02:38;9.20;;;7.13;;
29662;SDS011;16578;53.266;7.920;2023-11-18T02:05:04;9.00;;;7.10;;
29662;SDS011;16578;53.266;7.920;2023-11-18T02:07:31;11.48;;;8.25;;
29662;SDS011;16578;53.266;7.920;2023-11-18T02:09:58;11.50;;;8.00;;
29662;SDS011;16578;53.266;7.920;2023-11-18T02:15:00;18.98;;;9.93;;
29662;SDS011;16578;53.266;7.920;2023-11-18T02:17:34;15.82;;;9.27;;
29662;SDS011;16578;53.266;7.920;2023-11-18T02:22:35;17.58;;;9.43;;
29662;SDS011;16578;53.266;7.920;2023-11-18T02:25:01;16.33;;;9.60;;
29662;SDS011;16578;53.266;7.920;2023-11-18T02:27:31;21.65;;;10.80;;
29662;SDS011;16578;53.266;7.920;2023-11-18T02:29:57;19.00;;;10.70;;
29662;SDS011;16578;53.266;7.920;2023-11-18T02:32:29;17.15;;;10.32;;
29662;SDS011;16578;53.266;7.920;2023-11-18T02:35:08;22.20;;;10.93;;
29662;SDS011;16578;53.266;7.920;2023-11-18T02:37:39;21.85;;;11.07;;
29662;SDS011;16578;53.266;7.920;2023-11-18T02:40:07;22.73;;;11.38;;
29662;SDS011;16578;53.266;7.920;2023-11-18T02:42:39;23.52;;;12.23;;
29662;SDS011;16578;53.266;7.920;2023-11-18T02:45:07;26.33;;;12.85;;
29662;SDS011;16578;53.266;7.920;2023-11-18T02:47:37;23.08;;;13.43;;
29662;SDS011;16578;53.266;7.920;2023-11-18T02:50:04;25.85;;;13.82;;
29662;SDS011;16578;53.266;7.920;2023-11-18T02:52:38;30.17;;;15.52;;
29662;SDS011;16578;53.266;7.920;2023-11-18T02:55:05;32.45;;;16.13;;
29662;SDS011;16578;53.266;7.920;2023-11-18T02:57:37;30.50;;;16.15;;
29662;SDS011;16578;53.266;7.920;2023-11-18T03:00:07;28.95;;;15.15;;
29662;SDS011;16578;53.266;7.920;2023-11-18T03:02:37;32.35;;;16.27;;
29662;SDS011;16578;53.266;7.920;2023-11-18T03:05:05;30.00;;;16.02;;
29662;SDS011;16578;53.266;7.920;2023-11-18T03:07:32;28.17;;;15.25;;
29662;SDS011;16578;53.266;7.920;2023-11-18T03:09:58;22.73;;;13.73;;
29662;SDS011;16578;53.266;7.920;2023-11-18T03:12:25;24.88;;;14.23;;
29662;SDS011;16578;53.266;7.920;2023-11-18T03:14:53;28.75;;;15.20;;
29662;SDS011;16578;53.266;7.920;2023-11-18T03:17:19;34.42;;;15.25;;
29662;SDS011;16578;53.266;7.920;2023-11-18T03:19:45;25.02;;;14.85;;
29662;SDS011;16578;53.266;7.920;2023-11-18T03:22:11;29.02;;;15.70;;
29662;SDS011;16578;53.266;7.920;2023-11-18T03:24:38;26.40;;;15.75;;
29662;SDS011;16578;53.266;7.920;2023-11-18T03:27:04;35.53;;;17.27;;
29662;SDS011;16578;53.266;7.920;2023-11-18T03:29:29;32.78;;;15.98;;
29662;SDS011;16578;53.266;7.920;2023-11-18T03:31:55;29.85;;;16.33;;
29662;SDS011;16578;53.266;7.920;2023-11-18T03:34:21;35.60;;;15.70;;
29662;SDS011;16578;53.266;7.920;2023-11-18T03:36:46;34.97;;;16.20;;
29662;SDS011;16578;53.266;7.920;2023-11-18T03:39:12;28.75;;;17.83;;
29662;SDS011;16578;53.266;7.920;2023-11-18T03:41:39;39.00;;;17.60;;
29662;SDS011;16578;53.266;7.920;2023-11-18T03:44:05;41.97;;;18.92;;
29662;SDS011;16578;53.266;7.920;2023-11-18T03:46:30;55.75;;;18.63;;
29662;SDS011;16578;53.266;7.920;2023-11-18T03:51:25;50.58;;;17.23;;
29662;SDS011;16578;53.266;7.920;2023-11-18T03:53:51;39.55;;;17.88;;
29662;SDS011;16578;53.266;7.920;2023-11-18T03:56:17;39.88;;;17.85;;
29662;SDS011;16578;53.266;7.920;2023-11-18T03:58:45;42.15;;;17.90;;
29662;SDS011;16578;53.266;7.920;2023-11-18T04:01:23;46.90;;;19.58;;
29662;SDS011;16578;53.266;7.920;2023-11-18T04:03:53;53.15;;;18.83;;
29662;SDS011;16578;53.266;7.920;2023-11-18T04:06:19;48.20;;;17.92;;
29662;SDS011;16578;53.266;7.920;2023-11-18T04:08:46;42.83;;;17.42;;
29662;SDS011;16578;53.266;7.920;2023-11-18T04:11:13;47.05;;;17.60;;
29662;SDS011;16578;53.266;7.920;2023-11-18T04:13:39;32.97;;;17.20;;
29662;SDS011;16578;53.266;7.920;2023-11-18T04:16:09;41.92;;;17.27;;
29662;SDS011;16578;53.266;7.920;2023-11-18T04:18:39;26.33;;;16.20;;
29662;SDS011;16578;53.266;7.920;2023-11-18T04:21:11;32.20;;;16.15;;
29662;SDS011;16578;53.266;7.920;2023-11-18T04:23:38;41.85;;;15.07;;
29662;SDS011;16578;53.266;7.920;2023-11-18T04:26:04;53.33;;;15.52;;
29662;SDS011;16578;53.266;7.920;2023-11-18T04:28:32;38.25;;;13.77;;
29662;SDS011;16578;53.266;7.920;2023-11-18T04:30:58;68.15;;;15.20;;
29662;SDS011;16578;53.266;7.920;2023-11-18T04:33:23;42.58;;;13.90;;
29662;SDS011;16578;53.266;7.920;2023-11-18T04:35:52;46.03;;;14.15;;
29662;SDS011;16578;53.266;7.920;2023-11-18T04:38:18;42.03;;;13.52;;
29662;SDS011;16578;53.266;7.920;2023-11-18T04:40:44;27.38;;;13.50;;
29662;SDS011;16578;53.266;7.920;2023-11-18T04:43:11;39.97;;;13.77;;
29662;SDS011;16578;53.266;7.920;2023-11-18T04:45:37;35.95;;;12.60;;
29662;SDS011;16578;53.266;7.920;2023-11-18T04:48:04;28.02;;;13.60;;
29662;SDS011;16578;53.266;7.920;2023-11-18T04:50:30;52.63;;;13.65;;
29662;SDS011;16578;53.266;7.920;2023-11-18T04:52:57;19.50;;;12.10;;
29662;SDS011;16578;53.266;7.920;2023-11-18T04:55:22;36.15;;;12.98;;
29662;SDS011;16578;53.266;7.920;2023-11-18T04:57:48;45.47;;;12.55;;
29662;SDS011;16578;53.266;7.920;2023-11-18T05:00:13;27.80;;;11.57;;
29662;SDS011;16578;53.266;7.920;2023-11-18T05:02:42;33.95;;;11.60;;
29662;SDS011;16578;53.266;7.920;2023-11-18T05:05:08;29.73;;;11.55;;
29662;SDS011;16578;53.266;7.920;2023-11-18T05:07:34;42.15;;;12.30;;
29662;SDS011;16578;53.266;7.920;2023-11-18T05:10:00;35.80;;;13.70;;
29662;SDS011;16578;53.266;7.920;2023-11-18T05:12:26;24.73;;;12.15;;
29662;SDS011;16578;53.266;7.920;2023-11-18T05:14:54;35.38;;;13.40;;
29662;SDS011;16578;53.266;7.920;2023-11-18T05:17:21;20.98;;;12.70;;
29662;SDS011;16578;53.266;7.920;2023-11-18T05:19:46;30.45;;;13.25;;
29662;SDS011;16578;53.266;7.920;2023-11-18T05:22:13;33.85;;;14.68;;
29662;SDS011;16578;53.266;7.920;2023-11-18T05:24:38;30.63;;;13.77;;
29662;SDS011;16578;53.266;7.920;2023-11-18T05:27:04;32.10;;;14.73;;
29662;SDS011;16578;53.266;7.920;2023-11-18T05:29:30;21.75;;;13.77;;
29662;SDS011;16578;53.266;7.920;2023-11-18T05:31:55;30.23;;;15.25;;
29662;SDS011;16578;53.266;7.920;2023-11-18T05:34:21;51.05;;;16.55;;
29662;SDS011;16578;53.266;7.920;2023-11-18T05:36:47;40.10;;;16.70;;
29662;SDS011;16578;53.266;7.920;2023-11-18T05:39:13;42.35;;;16.58;;
29662;SDS011;16578;53.266;7.920;2023-11-18T05:41:40;71.97;;;17.08;;
29662;SDS011;16578;53.266;7.920;2023-11-18T05:44:10;45.85;;;14.88;;
29662;SDS011;16578;53.266;7.920;2023-11-18T05:46:42;37.47;;;14.98;;
29662;SDS011;16578;53.266;7.920;2023-11-18T05:49:11;40.28;;;15.88;;
29662;SDS011;16578;53.266;7.920;2023-11-18T05:51:38;41.50;;;16.35;;
29662;SDS011;16578;53.266;7.920;2023-11-18T05:54:08;29.70;;;16.25;;
29662;SDS011;16578;53.266;7.920;2023-11-18T05:56:33;38.10;;;16.55;;
29662;SDS011;16578;53.266;7.920;2023-11-18T05:58:59;30.02;;;15.35;;
29662;SDS011;16578;53.266;7.920;2023-11-18T06:01:28;23.50;;;15.73;;
29662;SDS011;16578;53.266;7.920;2023-11-18T06:03:54;29.88;;;15.82;;
29662;SDS011;16578;53.266;7.920;2023-11-18T06:06:21;40.47;;;17.58;;
29662;SDS011;16578;53.266;7.920;2023-11-18T06:08:47;49.97;;;17.75;;
29662;SDS011;16578;53.266;7.920;2023-11-18T06:11:14;28.08;;;16.08;;
29662;SDS011;16578;53.266;7.920;2023-11-18T06:16:14;35.80;;;17.30;;
29662;SDS011;16578;53.266;7.920;2023-11-18T06:18:41;30.92;;;16.70;;
29662;SDS011;16578;53.266;7.920;2023-11-18T06:21:16;39.17;;;16.75;;
29662;SDS011;16578;53.266;7.920;2023-11-18T06:23:43;26.30;;;15.18;;
29662;SDS011;16578;53.266;7.920;2023-11-18T06:26:10;28.73;;;17.40;;
29662;SDS011;16578;53.266;7.920;2023-11-18T06:28:40;29.63;;;17.90;;
29662;SDS011;16578;53.266;7.920;2023-11-18T06:31:10;33.08;;;17.83;;
29662;SDS011;16578;53.266;7.920;2023-11-18T06:33:39;28.85;;;17.88;;
29662;SDS011;16578;53.266;7.920;2023-11-18T06:36:10;35.70;;;18.67;;
29662;SDS011;16578;53.266;7.920;2023-11-18T06:38:42;29.30;;;17.77;;
29662;SDS011;16578;53.266;7.920;2023-11-18T06:41:11;35.33;;;17.65;;
29662;SDS011;16578;53.266;7.920;2023-11-18T06:43:41;30.05;;;17.88;;
29662;SDS011;16578;53.266;7.920;2023-11-18T06:46:21;29.73;;;16.98;;
29662;SDS011;16578;53.266;7.920;2023-11-18T06:48:52;32.22;;;17.65;;
29662;SDS011;16578;53.266;7.920;2023-11-18T06:51:19;29.03;;;16.73;;
29662;SDS011;16578;53.266;7.920;2023-11-18T06:53:58;28.33;;;15.88;;
29662;SDS011;16578;53.266;7.920;2023-11-18T06:56:24;27.35;;;16.42;;
29662;SDS011;16578;53.266;7.920;2023-11-18T06:58:51;31.05;;;17.80;;
29662;SDS011;16578;53.266;7.920;2023-11-18T07:01:16;30.92;;;17.48;;
29662;SDS011;16578;53.266;7.920;2023-11-18T07:03:46;33.70;;;18.65;;
29662;SDS011;16578;53.266;7.920;2023-11-18T07:06:16;32.92;;;18.92;;
29662;SDS011;16578;53.266;7.920;2023-11-18T07:08:47;31.88;;;17.60;;
29662;SDS011;16578;53.266;7.920;2023-11-18T07:11:16;31.02;;;18.13;;
29662;SDS011;16578;53.266;7.920;2023-11-18T07:13:42;37.72;;;20.17;;
29662;SDS011;16578;53.266;7.920;2023-11-18T07:16:08;37.17;;;18.77;;
29662;SDS011;16578;53.266;7.920;2023-11-18T07:18:37;33.03;;;18.92;;
29662;SDS011;16578;53.266;7.920;2023-11-18T07:21:03;34.45;;;20.02;;
29662;SDS011;16578;53.266;7.920;2023-11-18T07:23:30;33.33;;;19.45;;
29662;SDS011;16578;53.266;7.920;2023-11-18T07:25:56;39.53;;;19.77;;
29662;SDS011;16578;53.266;7.920;2023-11-18T07:28:22;38.25;;;22.15;;
29662;SDS011;16578;53.266;7.920;2023-11-18T07:30:48;38.47;;;21.27;;
29662;SDS011;16578;53.266;7.920;2023-11-18T07:33:14;43.10;;;22.80;;
29662;SDS011;16578;53.266;7.920;2023-11-18T07:35:41;38.30;;;19.90;;
29662;SDS011;16578;53.266;7.920;2023-11-18T07:38:07;44.72;;;23.38;;
29662;SDS011;16578;53.266;7.920;2023-11-18T07:40:33;40.60;;;22.10;;
29662;SDS011;16578;53.266;7.920;2023-11-18T07:42:59;39.00;;;21.15;;
29662;SDS011;16578;53.266;7.920;2023-11-18T07:45:28;37.28;;;20.48;;
29662;SDS011;16578;53.266;7.920;2023-11-18T07:48:02;39.00;;;20.48;;
29662;SDS011;16578;53.266;7.920;2023-11-18T07:50:31;39.72;;;21.45;;
29662;SDS011;16578;53.266;7.920;2023-11-18T07:53:00;39.67;;;20.52;;
29662;SDS011;16578;53.266;7.920;2023-11-18T07:55:26;39.78;;;20.75;;
29662;SDS011;16578;53.266;7.920;2023-11-18T07:57:51;36.13;;;20.77;;
29662;SDS011;16578;53.266;7.920;2023-11-18T08:00:17;38.53;;;20.02;;
29662;SDS011;16578;53.266;7.920;2023-11-18T08:02:42;41.17;;;19.88;;
29662;SDS011;16578;53.266;7.920;2023-11-18T08:05:09;38.58;;;19.40;;
29662;SDS011;16578;53.266;7.920;2023-11-18T08:07:39;43.22;;;20.27;;
29662;SDS011;16578;53.266;7.920;2023-11-18T08:10:05;36.45;;;20.75;;
29662;SDS011;16578;53.266;7.920;2023-11-18T08:12:32;35.00;;;19.85;;
29662;SDS011;16578;53.266;7.920;2023-11-18T08:14:57;36.25;;;19.73;;
29662;SDS011;16578;53.266;7.920;2023-11-18T08:17:24;37.20;;;20.38;;
29662;SDS011;16578;53.266;7.920;2023-11-18T08:19:50;39.35;;;20.65;;
29662;SDS011;16578;53.266;7.920;2023-11-18T08:22:17;39.50;;;21.67;;
29662;SDS011;16578;53.266;7.920;2023-11-18T08:24:44;41.03;;;21.70;;
29662;SDS011;16578;53.266;7.920;2023-11-18T08:27:10;41.70;;;21.35;;
29662;SDS011;16578;53.266;7.920;2023-11-18T08:29:36;40.88;;;19.83;;
29662;SDS011;16578;53.266;7.920;2023-11-18T08:32:03;43.10;;;21.13;;
29662;SDS011;16578;53.266;7.920;2023-11-18T08:34:30;46.47;;;22.08;;
29662;SDS011;16578;53.266;7.920;2023-11-18T08:36:58;38.13;;;21.55;;
29662;SDS011;16578;53.266;7.920;2023-11-18T08:39:24;38.67;;;20.95;;
29662;SDS011;16578;53.266;7.920;2023-11-18T08:41:51;41.97;;;22.70;;
29662;SDS011;16578;53.266;7.920;2023-11-18T08:44:17;41.45;;;21.50;;
29662;SDS011;16578;53.266;7.920;2023-11-18T08:46:42;39.83;;;20.40;;
29662;SDS011;16578;53.266;7.920;2023-11-18T08:49:08;42.92;;;21.85;;
29662;SDS011;16578;53.266;7.920;2023-11-18T08:51:39;41.47;;;21.55;;
29662;SDS011;16578;53.266;7.920;2023-11-18T08:54:08;44.28;;;22.95;;
29662;SDS011;16578;53.266;7.920;2023-11-18T08:56:53;43.60;;;22.88;;
29662;SDS011;16578;53.266;7.920;2023-11-18T08:59:22;43.15;;;23.17;;
29662;SDS011;16578;53.266;7.920;2023-11-18T09:04:20;42.15;;;22.58;;
29662;SDS011;16578;53.266;7.920;2023-11-18T09:06:50;46.50;;;24.08;;
29662;SDS011;16578;53.266;7.920;2023-11-18T09:09:22;44.20;;;22.88;;
29662;SDS011;16578;53.266;7.920;2023-11-18T09:11:55;42.60;;;22.45;;
29662;SDS011;16578;53.266;7.920;2023-11-18T09:14:23;44.17;;;21.80;;
29662;SDS011;16578;53.266;7.920;2023-11-18T09:16:50;43.00;;;22.23;;
29662;SDS011;16578;53.266;7.920;2023-11-18T09:19:16;41.83;;;22.73;;
29662;SDS011;16578;53.266;7.920;2023-11-18T09:21:42;38.67;;;21.33;;
29662;SDS011;16578;53.266;7.920;2023-11-18T09:24:09;41.10;;;22.35;;
29662;SDS011;16578;53.266;7.920;2023-11-18T09:26:38;43.30;;;23.02;;
29662;SDS011;16578;53.266;7.920;2023-11-18T09:29:04;42.30;;;22.40;;
29662;SDS011;16578;53.266;7.920;2023-11-18T09:31:33;41.20;;;22.38;;
29662;SDS011;16578;53.266;7.920;2023-11-18T09:34:00;40.50;;;22.75;;
29662;SDS011;16578;53.266;7.920;2023-11-18T09:36:26;40.05;;;22.67;;
29662;SDS011;16578;53.266;7.920;2023-11-18T09:38:53;42.45;;;22.48;;
29662;SDS011;16578;53.266;7.920;2023-11-18T09:41:19;38.45;;;22.00;;
29662;SDS011;16578;53.266;7.920;2023-11-18T09:43:49;39.08;;;21.40;;
29662;SDS011;16578;53.266;7.920;2023-11-18T09:46:25;38.95;;;21.52;;
29662;SDS011;16578;53.266;7.920;2023-11-18T09:49:16;36.25;;;20.92;;
29662;SDS011;16578;53.266;7.920;2023-11-18T09:51:50;39.63;;;19.95;;
29662;SDS011;16578;53.266;7.920;2023-11-18T09:59:47;35.83;;;20.00;;
29662;SDS011;16578;53.266;7.920;2023-11-18T10:02:20;33.65;;;19.10;;
29662;SDS011;16578;53.266;7.920;2023-11-18T10:04:48;35.95;;;18.30;;
29662;SDS011;16578;53.266;7.920;2023-11-18T10:07:22;35.30;;;19.73;;
29662;SDS011;16578;53.266;7.920;2023-11-18T10:09:51;39.00;;;22.75;;
29662;SDS011;16578;53.266;7.920;2023-11-18T10:12:22;32.60;;;20.15;;
29662;SDS011;16578;53.266;7.920;2023-11-18T10:14:48;34.30;;;19.65;;
29662;SDS011;16578;53.266;7.920;2023-11-18T10:17:17;32.22;;;20.17;;
29662;SDS011;16578;53.266;7.920;2023-11-18T10:19:52;33.15;;;19.67;;
29662;SDS011;16578;53.266;7.920;2023-11-18T10:22:26;47.67;;;24.00;;
29662;SDS011;16578;53.266;7.920;2023-11-18T10:24:54;53.65;;;25.73;;
29662;SDS011;16578;53.266;7.920;2023-11-18T10:27:28;40.92;;;21.42;;
29662;SDS011;16578;53.266;7.920;2023-11-18T10:29:58;37.10;;;20.10;;
29662;SDS011;16578;53.266;7.920;2023-11-18T10:32:27;32.58;;;18.23;;
29662;SDS011;16578;53.266;7.920;2023-11-18T10:34:56;35.08;;;21.40;;
29662;SDS011;16578;53.266;7.920;2023-11-18T10:37:22;32.28;;;19.17;;
29662;SDS011;16578;53.266;7.920;2023-11-18T10:39:52;31.30;;;18.65;;
29662;SDS011;16578;53.266;7.920;2023-11-18T10:42:18;33.42;;;19.35;;
29662;SDS011;16578;53.266;7.920;2023-11-18T10:44:56;30.98;;;19.17;;
29662;SDS011;16578;53.266;7.920;2023-11-18T10:47:26;28.42;;;16.50;;
29662;SDS011;16578;53.266;7.920;2023-11-18T10:49:52;32.95;;;17.42;;
29662;SDS011;16578;53.266;7.920;2023-11-18T10:52:20;28.95;;;18.17;;
29662;SDS011;16578;53.266;7.920;2023-11-18T10:54:52;26.08;;;16.67;;
29662;SDS011;16578;53.266;7.920;2023-11-18T10:57:19;28.00;;;16.92;;
29662;SDS011;16578;53.266;7.920;2023-11-18T10:59:58;28.13;;;16.15;;
29662;SDS011;16578;53.266;7.920;2023-11-18T11:02:24;32.03;;;18.08;;
29662;SDS011;16578;53.266;7.920;2023-11-18T11:04:50;28.85;;;16.83;;
29662;SDS011;16578;53.266;7.920;2023-11-18T11:07:15;30.52;;;17.35;;
29662;SDS011;16578;53.266;7.920;2023-11-18T11:09:44;27.88;;;16.30;;
29662;SDS011;16578;53.266;7.920;2023-11-18T11:12:11;29.38;;;16.67;;
29662;SDS011;16578;53.266;7.920;2023-11-18T11:14:42;27.92;;;16.77;;
29662;SDS011;16578;53.266;7.920;2023-11-18T11:17:19;22.23;;;12.57;;
29662;SDS011;16578;53.266;7.920;2023-11-18T11:19:55;24.73;;;17.20;;
29662;SDS011;16578;53.266;7.920;2023-11-18T11:23:25;26.90;;;16.23;;
29662;SDS011;16578;53.266;7.920;2023-11-18T11:25:44;29.17;;;16.02;;
29662;SDS011;16578;53.266;7.920;2023-11-18T11:28:20;25.25;;;16.02;;
29662;SDS011;16578;53.266;7.920;2023-11-18T11:30:58;32.15;;;18.40;;
29662;SDS011;16578;53.266;7.920;2023-11-18T11:33:42;27.27;;;16.65;;
29662;SDS011;16578;53.266;7.920;2023-11-18T11:36:12;26.85;;;16.25;;
29662;SDS011;16578;53.266;7.920;2023-11-18T11:38:42;31.13;;;18.77;;
29662;SDS011;16578;53.266;7.920;2023-11-18T11:41:12;29.88;;;16.80;;
29662;SDS011;16578;53.266;7.920;2023-11-18T11:43:45;30.38;;;18.13;;
29662;SDS011;16578;53.266;7.920;2023-11-18T11:48:39;32.58;;;18.65;;
29662;SDS011;16578;53.266;7.920;2023-11-18T11:53:41;29.35;;;17.55;;
29662;SDS011;16578;53.266;7.920;2023-11-18T11:56:12;34.33;;;20.80;;
29662;SDS011;16578;53.266;7.920;2023-11-18T11:58:39;36.17;;;19.67;;
29662;SDS011;16578;53.266;7.920;2023-11-18T12:01:21;33.97;;;19.75;;
29662;SDS011;16578;53.266;7.920;2023-11-18T12:03:57;31.58;;;18.05;;
29662;SDS011;16578;53.266;7.920;2023-11-18T12:06:25;34.53;;;20.08;;
29662;SDS011;16578;53.266;7.920;2023-11-18T12:08:52;32.72;;;19.95;;
29662;SDS011;16578;53.266;7.920;2023-11-18T12:11:18;33.20;;;20.42;;
29662;SDS011;16578;53.266;7.920;2023-11-18T12:14:05;33.95;;;19.15;;
29662;SDS011;16578;53.266;7.920;2023-11-18T12:17:02;28.90;;;18.20;;
29662;SDS011;16578;53.266;7.920;2023-11-18T12:19:38;31.60;;;18.30;;
29662;SDS011;16578;53.266;7.920;2023-11-18T12:22:16;31.98;;;18.70;;
29662;SDS011;16578;53.266;7.920;2023-11-18T12:35:32;31.95;;;18.50;;
29662;SDS011;16578;53.266;7.920;2023-11-18T12:41:37;37.13;;;20.03;;
29662;SDS011;16578;53.266;7.920;2023-11-18T12:49:20;35.20;;;18.85;;
29662;SDS011;16578;53.266;7.920;2023-11-18T12:51:50;37.03;;;20.83;;
29662;SDS011;16578;53.266;7.920;2023-11-18T12:54:18;35.75;;;19.15;;
29662;SDS011;16578;53.266;7.920;2023-11-18T12:56:44;34.42;;;19.60;;
29662;SDS011;16578;53.266;7.920;2023-11-18T12:59:16;37.60;;;20.35;;
29662;SDS011;16578;53.266;7.920;2023-11-18T13:01:49;34.08;;;19.80;;
29662;SDS011;16578;53.266;7.920;2023-11-18T13:04:29;36.70;;;20.30;;
29662;SDS011;16578;53.266;7.920;2023-11-18T13:06:59;34.10;;;19.85;;
29662;SDS011;16578;53.266;7.920;2023-11-18T13:09:25;36.88;;;20.02;;
29662;SDS011;16578;53.266;7.920;2023-11-18T13:11:57;33.83;;;18.98;;
29662;SDS011;16578;53.266;7.920;2023-11-18T13:14:25;35.75;;;20.08;;
29662;SDS011;16578;53.266;7.920;2023-11-18T13:16:52;36.70;;;19.35;;
29662;SDS011;16578;53.266;7.920;2023-11-18T13:19:27;38.17;;;20.45;;
29662;SDS011;16578;53.266;7.920;2023-11-18T13:22:04;35.53;;;18.98;;
29662;SDS011;16578;53.266;7.920;2023-11-18T13:24:37;33.22;;;18.60;;
29662;SDS011;16578;53.266;7.920;2023-11-18T13:27:09;36.40;;;19.15;;
29662;SDS011;16578;53.266;7.920;2023-11-18T13:29:36;39.08;;;19.85;;
29662;SDS011;16578;53.266;7.920;2023-11-18T13:32:05;39.20;;;20.35;;
29662;SDS011;16578;53.266;7.920;2023-11-18T13:34:32;35.95;;;19.83;;
29662;SDS011;16578;53.266;7.920;2023-11-18T13:39:26;36.65;;;20.05;;
29662;SDS011;16578;53.266;7.920;2023-11-18T13:41:52;38.97;;;20.42;;
29662;SDS011;16578;53.266;7.920;2023-11-18T13:44:31;42.13;;;21.42;;
29662;SDS011;16578;53.266;7.920;2023-11-18T13:47:01;35.40;;;19.08;;
29662;SDS011;16578;53.266;7.920;2023-11-18T13:49:28;36.33;;;19.52;;
29662;SDS011;16578;53.266;7.920;2023-11-18T13:51:54;38.35;;;20.98;;
29662;SDS011;16578;53.266;7.920;2023-11-18T13:54:21;32.88;;;18.60;;
29662;SDS011;16578;53.266;7.920;2023-11-18T13:56:48;34.90;;;20.83;;
29662;SDS011;16578;53.266;7.920;2023-11-18T13:59:15;35.05;;;21.55;;
29662;SDS011;16578;53.266;7.920;2023-11-18T14:01:41;37.78;;;20.33;;
29662;SDS011;16578;53.266;7.920;2023-11-18T14:04:07;39.45;;;20.42;;
29662;SDS011;16578;53.266;7.920;2023-11-18T14:06:35;38.60;;;19.83;;
29662;SDS011;16578;53.266;7.920;2023-11-18T14:09:02;36.75;;;20.42;;
29662;SDS011;16578;53.266;7.920;2023-11-18T14:11:29;35.25;;;18.58;;
29662;SDS011;16578;53.266;7.920;2023-11-18T14:13:55;34.13;;;18.25;;
29662;SDS011;16578;53.266;7.920;2023-11-18T14:16:21;34.65;;;18.13;;
29662;SDS011;16578;53.266;7.920;2023-11-18T14:18:48;38.07;;;19.77;;
29662;SDS011;16578;53.266;7.920;2023-11-18T14:21:14;33.42;;;18.92;;
29662;SDS011;16578;53.266;7.920;2023-11-18T14:23:40;34.03;;;18.70;;
29662;SDS011;16578;53.266;7.920;2023-11-18T14:26:06;32.17;;;17.80;;
29662;SDS011;16578;53.266;7.920;2023-11-18T14:28:35;33.63;;;17.17;;
29662;SDS011;16578;53.266;7.920;2023-11-18T14:31:02;30.60;;;18.63;;
29662;SDS011;16578;53.266;7.920;2023-11-18T14:33:29;31.27;;;17.35;;
29662;SDS011;16578;53.266;7.920;2023-11-18T14:35:58;34.65;;;19.65;;
29662;SDS011;16578;53.266;7.920;2023-11-18T14:38:26;33.80;;;18.27;;
29662;SDS011;16578;53.266;7.920;2023-11-18T14:40:52;28.42;;;16.73;;
29662;SDS011;16578;53.266;7.920;2023-11-18T14:43:18;30.95;;;17.75;;
29662;SDS011;16578;53.266;7.920;2023-11-18T14:45:44;32.42;;;17.63;;
29662;SDS011;16578;53.266;7.920;2023-11-18T14:48:10;32.45;;;17.27;;
29662;SDS011;16578;53.266;7.920;2023-11-18T14:50:36;33.50;;;16.13;;
29662;SDS011;16578;53.266;7.920;2023-11-18T14:53:03;31.08;;;17.92;;
29662;SDS011;16578;53.266;7.920;2023-11-18T14:55:29;35.63;;;18.48;;
29662;SDS011;16578;53.266;7.920;2023-11-18T14:57:55;32.78;;;18.60;;
29662;SDS011;16578;53.266;7.920;2023-11-18T15:00:21;31.88;;;17.48;;
29662;SDS011;16578;53.266;7.920;2023-11-18T15:05:16;27.38;;;15.55;;
29662;SDS011;16578;53.266;7.920;2023-11-18T15:07:46;26.17;;;16.02;;
29662;SDS011;16578;53.266;7.920;2023-11-18T15:10:19;28.50;;;16.05;;
29662;SDS011;16578;53.266;7.920;2023-11-18T15:12:50;27.15;;;17.15;;
29662;SDS011;16578;53.266;7.920;2023-11-18T15:15:22;25.23;;;14.95;;
29662;SDS011;16578;53.266;7.920;2023-11-18T15:17:56;25.90;;;15.02;;
29662;SDS011;16578;53.266;7.920;2023-11-18T15:20:39;30.92;;;17.02;;
29662;SDS011;16578;53.266;7.920;2023-11-18T15:23:08;24.35;;;14.75;;
29662;SDS011;16578;53.266;7.920;2023-11-18T15:25:37;29.27;;;15.32;;